createdAt,value
2022-12-09T00:00:46.224Z,17.46
2022-12-09T00:03:48.792Z,17.44
2022-12-09T00:06:51.085Z,17.41
2022-12-09T00:09:53.200Z,17.41
2022-12-09T00:12:56.324Z,17.39
2022-12-09T00:15:58.540Z,17.38
2022-12-09T00:19:00.645Z,17.36
2022-12-09T00:22:02.781Z,17.39
2022-12-09T00:25:05.130Z,17.36
2022-12-09T00:28:07.375Z,17.37
2022-12-09T00:31:15.819Z,17.34
2022-12-09T00:34:18.058Z,17.32
2022-12-09T00:37:20.640Z,17.31
2022-12-09T00:40:23.004Z,17.32
2022-12-09T00:43:25.402Z,17.30
2022-12-09T00:46:27.744Z,17.26
2022-12-09T00:49:30.071Z,17.25
2022-12-09T00:52:32.225Z,17.23
2022-12-09T00:55:34.387Z,17.21
2022-12-09T00:58:36.816Z,17.23
2022-12-09T01:01:39.248Z,17.21
2022-12-09T01:04:41.413Z,17.20
2022-12-09T01:07:44.125Z,17.19
2022-12-09T01:10:46.837Z,17.17
2022-12-09T01:13:50.185Z,17.18
2022-12-09T01:16:52.394Z,17.14
2022-12-09T01:19:54.639Z,17.11
2022-12-09T01:22:56.841Z,17.13
2022-12-09T01:25:59.062Z,17.08
2022-12-09T01:29:01.397Z,17.08
2022-12-09T01:32:03.642Z,17.08
2022-12-09T01:35:06.228Z,17.07
2022-12-09T01:38:08.550Z,17.07
2022-12-09T01:41:10.809Z,17.03
2022-12-09T01:44:25.401Z,17.03
2022-12-09T01:47:27.900Z,17.01
2022-12-09T01:50:31.217Z,16.99
2022-12-09T01:53:38.008Z,16.96
2022-12-09T01:56:40.918Z,16.95
2022-12-09T01:59:44.212Z,16.95
2022-12-09T02:02:48.898Z,16.92
2022-12-09T02:05:51.759Z,16.89
2022-12-09T02:08:55.104Z,16.91
2022-12-09T02:12:16.814Z,16.89
2022-12-09T02:15:23.114Z,16.90
2022-12-09T02:18:31.048Z,16.85
2022-12-09T02:21:56.986Z,16.85
2022-12-09T02:25:43.844Z,16.81
2022-12-09T02:29:16.123Z,16.85
2022-12-09T02:32:33.637Z,16.80
2022-12-09T02:35:45.234Z,16.79
2022-12-09T02:38:48.885Z,16.75
2022-12-09T02:41:53.713Z,16.74
2022-12-09T02:44:57.922Z,16.72
2022-12-09T02:48:03.741Z,16.71
2022-12-09T02:51:13.544Z,16.70
2022-12-09T02:54:17.946Z,16.70
2022-12-09T02:57:25.537Z,16.69
2022-12-09T03:00:27.887Z,16.66
2022-12-09T03:03:32.398Z,16.67
2022-12-09T03:06:43.895Z,16.65
2022-12-09T03:09:49.245Z,16.62
2022-12-09T03:12:58.584Z,16.61
2022-12-09T03:16:16.868Z,16.58
2022-12-09T03:19:59.600Z,16.58
2022-12-09T03:23:05.743Z,16.57
2022-12-09T03:26:08.384Z,16.55
2022-12-09T03:29:18.347Z,16.54
2022-12-09T03:32:24.046Z,16.51
2022-12-09T03:35:33.653Z,16.51
2022-12-09T03:38:39.710Z,16.49
2022-12-09T03:41:49.253Z,16.45
2022-12-09T03:45:01.371Z,16.47
2022-12-09T03:48:03.880Z,16.47
2022-12-09T03:51:18.895Z,16.44
2022-12-09T03:54:23.642Z,16.42
2022-12-09T03:57:27.819Z,16.41
2022-12-09T04:00:31.145Z,16.41
2022-12-09T04:03:33.926Z,16.42
2022-12-09T04:06:36.931Z,16.39
2022-12-09T04:09:39.036Z,16.35
2022-12-09T04:12:42.255Z,16.34
2022-12-09T04:15:44.356Z,16.29
2022-12-09T04:18:46.669Z,16.30
2022-12-09T04:21:48.899Z,16.29
2022-12-09T04:24:51.442Z,16.28
2022-12-09T04:27:53.595Z,16.28
2022-12-09T04:30:56.063Z,16.27
2022-12-09T04:34:00.636Z,16.30
2022-12-09T04:37:06.013Z,16.35
2022-12-09T04:40:09.255Z,16.40
2022-12-09T04:43:11.520Z,16.45
2022-12-09T04:46:16.938Z,16.52
2022-12-09T04:49:19.299Z,16.63
2022-12-09T04:52:21.570Z,16.73
2022-12-09T04:55:23.632Z,16.78
2022-12-09T04:58:25.730Z,16.87
2022-12-09T05:01:31.179Z,16.96
2022-12-09T05:04:33.704Z,17.09
2022-12-09T05:07:36.477Z,17.18
2022-12-09T05:10:38.904Z,17.21
2022-12-09T05:13:41.371Z,17.28
2022-12-09T05:16:44.063Z,17.34
2022-12-09T05:19:46.375Z,17.43
2022-12-09T05:22:48.864Z,17.48
2022-12-09T05:25:51.338Z,17.47
2022-12-09T05:28:53.736Z,17.52
2022-12-09T05:31:56.063Z,17.62
2022-12-09T05:34:58.533Z,17.73
2022-12-09T05:38:00.688Z,17.77
2022-12-09T05:41:03.422Z,17.73
2022-12-09T05:44:05.749Z,17.74
2022-12-09T05:47:08.020Z,17.78
2022-12-09T05:50:12.609Z,17.89
2022-12-09T05:53:15.661Z,17.95
2022-12-09T05:56:18.893Z,17.96
2022-12-09T05:59:21.129Z,17.95
2022-12-09T06:02:23.464Z,17.93
2022-12-09T06:05:25.809Z,18.02
2022-12-09T06:08:28.461Z,18.06
2022-12-09T06:11:32.557Z,18.11
2022-12-09T06:14:35.349Z,18.07
2022-12-09T06:17:37.976Z,18.08
2022-12-09T06:20:41.674Z,18.10
2022-12-09T06:23:44.302Z,18.12
2022-12-09T06:26:46.521Z,18.10
2022-12-09T06:29:48.950Z,18.11
2022-12-09T06:32:51.138Z,18.12
2022-12-09T06:35:53.477Z,18.17
2022-12-09T06:38:56.974Z,18.19
2022-12-09T06:41:59.587Z,18.17
2022-12-09T06:45:01.872Z,18.20
2022-12-09T06:48:04.843Z,18.28
2022-12-09T06:51:07.524Z,18.32
2022-12-09T06:54:11.004Z,18.30
2022-12-09T06:57:13.269Z,18.28
2022-12-09T07:00:15.989Z,18.34
2022-12-09T07:03:18.294Z,18.41
2022-12-09T07:06:28.820Z,18.40
2022-12-09T07:09:31.168Z,18.39
2022-12-09T07:12:34.047Z,18.42
2022-12-09T07:15:36.476Z,18.51
2022-12-09T07:18:39.017Z,18.53
2022-12-09T07:21:41.258Z,18.52
2022-12-09T07:24:43.934Z,18.50
2022-12-09T07:27:46.458Z,18.54
2022-12-09T07:30:48.810Z,18.63
2022-12-09T07:33:52.633Z,18.64
2022-12-09T07:36:55.420Z,18.62
2022-12-09T07:39:57.761Z,18.59
2022-12-09T07:43:00.167Z,18.69
2022-12-09T07:46:09.158Z,18.76
2022-12-09T07:49:11.960Z,18.78
2022-12-09T07:52:14.630Z,18.78
2022-12-09T07:55:17.245Z,18.82
2022-12-09T07:58:19.813Z,18.97
2022-12-09T08:01:24.725Z,19.00
2022-12-09T08:04:27.274Z,18.99
2022-12-09T08:07:30.125Z,19.00
2022-12-09T08:10:32.552Z,19.05
2022-12-09T08:13:35.850Z,19.11
2022-12-09T08:16:38.407Z,19.21
2022-12-09T08:19:41.148Z,19.18
2022-12-09T08:22:43.502Z,19.20
2022-12-09T08:25:46.045Z,19.23
2022-12-09T08:28:48.726Z,19.33
2022-12-09T08:31:51.311Z,19.31
2022-12-09T08:34:54.096Z,19.28
2022-12-09T08:37:56.501Z,19.11
2022-12-09T08:40:59.052Z,19.18
2022-12-09T08:44:07.094Z,19.30
2022-12-09T08:47:09.842Z,19.33
2022-12-09T08:50:12.674Z,19.30
2022-12-09T08:53:15.345Z,19.33
2022-12-09T08:56:17.706Z,19.42
2022-12-09T08:59:20.214Z,19.47
2022-12-09T09:02:22.817Z,19.50
2022-12-09T09:05:25.270Z,19.53
2022-12-09T09:08:28.279Z,19.56
2022-12-09T09:11:30.893Z,19.62
2022-12-09T09:14:33.479Z,19.69
2022-12-09T09:17:35.895Z,19.62
2022-12-09T09:20:38.347Z,19.65
2022-12-09T09:23:41.371Z,19.61
2022-12-09T09:26:44.278Z,19.74
2022-12-09T09:29:46.910Z,19.84
2022-12-09T09:32:49.448Z,19.77
2022-12-09T09:36:08.367Z,19.79
2022-12-09T09:39:14.036Z,19.80
2022-12-09T09:42:27.834Z,19.91
2022-12-09T09:45:31.513Z,19.99
2022-12-09T09:48:36.726Z,19.94
2022-12-09T09:51:39.413Z,19.95
2022-12-09T09:54:42.316Z,19.98
2022-12-09T09:57:52.399Z,20.01
2022-12-09T10:01:04.424Z,19.99
2022-12-09T10:04:46.291Z,19.98
2022-12-09T10:08:18.464Z,20.09
2022-12-09T10:11:38.421Z,20.13
2022-12-09T10:15:14.359Z,20.11
2022-12-09T10:18:26.994Z,20.12
2022-12-09T10:21:31.495Z,20.16
2022-12-09T10:24:40.041Z,20.20
2022-12-09T10:28:06.539Z,20.20
2022-12-09T10:31:11.089Z,20.13
2022-12-09T10:34:14.390Z,20.16
2022-12-09T10:37:28.272Z,20.28
2022-12-09T10:40:59.188Z,20.28
2022-12-09T10:44:19.617Z,20.28
2022-12-09T10:47:27.086Z,20.27
2022-12-09T10:50:35.854Z,20.19
2022-12-09T10:53:43.951Z,20.14
2022-12-09T10:57:22.728Z,20.12
2022-12-09T11:00:29.634Z,20.06
2022-12-09T11:03:54.804Z,20.00
2022-12-09T11:07:19.078Z,19.97
2022-12-09T11:10:25.250Z,19.95
2022-12-09T11:13:39.170Z,19.95
2022-12-09T11:16:41.779Z,19.89
2022-12-09T11:19:49.129Z,19.89
2022-12-09T11:23:18.016Z,19.87
2022-12-09T11:26:26.490Z,19.84
2022-12-09T11:29:28.743Z,19.81
2022-12-09T11:32:31.644Z,19.77
2022-12-09T11:35:38.466Z,19.73
2022-12-09T11:38:46.239Z,19.70
2022-12-09T11:42:18.485Z,19.69
2022-12-09T11:45:45.622Z,19.60
2022-12-09T11:49:03.069Z,19.55
2022-12-09T11:52:31.823Z,19.52
2022-12-09T11:55:36.266Z,19.45
2022-12-09T11:58:53.442Z,19.40
2022-12-09T12:02:20.354Z,19.38
2022-12-09T12:05:32.260Z,19.33
2022-12-09T12:09:15.814Z,19.29
2022-12-09T12:12:22.281Z,19.26
2022-12-09T12:16:06.154Z,19.27
2022-12-09T12:19:39.443Z,19.23
2022-12-09T12:23:00.241Z,19.22
2022-12-09T12:26:13.769Z,19.16
2022-12-09T12:29:36.216Z,19.12
2022-12-09T12:36:45.085Z,19.07
2022-12-09T12:39:50.361Z,19.07
2022-12-09T12:43:43.026Z,19.02
2022-12-09T12:46:53.749Z,18.98
2022-12-09T12:50:22.529Z,18.95
2022-12-09T12:53:50.949Z,18.94
2022-12-09T12:57:22.602Z,18.93
2022-12-09T13:00:31.405Z,18.91
2022-12-09T13:03:58.754Z,18.87
2022-12-09T13:07:33.154Z,18.87
2022-12-09T13:10:41.875Z,18.86
2022-12-09T13:13:54.391Z,18.80
2022-12-09T13:16:56.526Z,18.82
2022-12-09T13:20:03.760Z,18.81
2022-12-09T13:23:22.283Z,18.81
2022-12-09T13:26:49.558Z,18.79
2022-12-09T13:30:17.296Z,18.79
2022-12-09T13:33:44.538Z,18.79
2022-12-09T13:36:48.578Z,18.77
2022-12-09T13:39:50.597Z,18.77
2022-12-09T13:43:01.603Z,18.73
2022-12-09T13:46:03.894Z,18.70
2022-12-09T13:49:16.524Z,18.70
2022-12-09T13:52:48.588Z,18.68
2022-12-09T13:55:57.031Z,18.67
2022-12-09T13:59:15.966Z,18.67
2022-12-09T14:02:30.036Z,18.67
2022-12-09T14:05:36.498Z,18.69
2022-12-09T14:08:47.826Z,18.72
2022-12-09T14:11:52.579Z,18.69
2022-12-09T14:15:23.738Z,18.69
2022-12-09T14:18:30.324Z,18.68
2022-12-09T14:21:33.427Z,18.74
2022-12-09T14:24:36.595Z,18.76
2022-12-09T14:27:38.630Z,18.83
2022-12-09T14:30:52.128Z,18.88
2022-12-09T14:33:54.302Z,18.88
2022-12-09T14:37:25.395Z,18.92
2022-12-09T14:40:45.491Z,18.98
2022-12-09T14:44:15.747Z,18.99
2022-12-09T14:47:24.119Z,18.98
2022-12-09T14:50:28.668Z,18.99
2022-12-09T14:53:34.188Z,19.01
2022-12-09T14:56:36.437Z,19.00
2022-12-09T14:59:49.228Z,19.06
2022-12-09T15:03:22.962Z,19.07
2022-12-09T15:06:19.260Z,19.03
2022-12-09T15:09:21.310Z,19.01
2022-12-09T15:12:32.308Z,19.00
2022-12-09T15:15:37.802Z,18.98
2022-12-09T15:18:42.250Z,18.99
2022-12-09T15:21:47.441Z,19.05
2022-12-09T15:24:51.113Z,19.08
2022-12-09T15:28:21.473Z,19.06
2022-12-09T15:31:29.348Z,19.08
2022-12-09T15:34:31.659Z,19.11
2022-12-09T15:37:33.965Z,19.08
2022-12-09T15:40:37.509Z,19.06
2022-12-09T15:43:42.389Z,19.00
2022-12-09T15:46:46.628Z,19.05
2022-12-09T15:50:08.456Z,19.12
2022-12-09T15:53:23.299Z,19.07
2022-12-09T15:56:39.337Z,19.08
2022-12-09T15:59:55.508Z,18.99
2022-12-09T16:02:58.194Z,18.98
2022-12-09T16:06:06.410Z,18.93
2022-12-09T16:09:17.401Z,18.86
2022-12-09T16:12:28.210Z,18.83
2022-12-09T16:15:53.610Z,18.79
2022-12-09T16:18:56.565Z,18.79
2022-12-09T16:22:14.926Z,18.77
2022-12-09T16:25:22.778Z,18.78
2022-12-09T16:28:27.247Z,18.80
2022-12-09T16:31:29.774Z,18.83
2022-12-09T16:34:31.974Z,18.82
2022-12-09T16:37:37.037Z,18.81
2022-12-09T16:40:45.389Z,18.78
2022-12-09T16:43:56.114Z,18.77
2022-12-09T16:47:18.744Z,18.74
2022-12-09T16:50:21.968Z,18.76
2022-12-09T16:53:29.895Z,18.78
2022-12-09T16:56:32.890Z,18.77
2022-12-09T16:59:38.130Z,18.77
2022-12-09T17:02:45.239Z,18.76
2022-12-09T17:05:48.084Z,18.74
2022-12-09T17:08:50.335Z,18.74
2022-12-09T17:11:52.433Z,18.73
2022-12-09T17:14:54.545Z,18.73
2022-12-09T17:17:56.686Z,18.73
2022-12-09T17:21:10.283Z,18.72
2022-12-09T17:24:12.396Z,18.72
2022-12-09T17:27:14.704Z,18.73
2022-12-09T17:30:16.809Z,18.71
2022-12-09T17:33:19.388Z,18.70
2022-12-09T17:36:21.458Z,18.71
2022-12-09T17:39:24.749Z,18.70
2022-12-09T17:42:26.872Z,18.71
2022-12-09T17:45:29.350Z,18.71
2022-12-09T17:48:32.597Z,18.70
2022-12-09T17:51:36.492Z,18.70
2022-12-09T17:54:38.873Z,18.68
2022-12-09T17:57:40.955Z,18.68
2022-12-09T18:00:43.219Z,18.67
2022-12-09T18:04:06.383Z,18.66
2022-12-09T18:07:07.328Z,18.65
2022-12-09T18:10:10.530Z,18.65
2022-12-09T18:13:12.779Z,18.66
2022-12-09T18:16:15.808Z,18.64
2022-12-09T18:19:20.192Z,18.63
2022-12-09T18:22:22.223Z,18.61
2022-12-09T18:25:24.249Z,18.59
2022-12-09T18:28:27.673Z,18.61
2022-12-09T18:31:29.802Z,18.59
2022-12-09T18:34:32.864Z,18.57
2022-12-09T18:37:35.038Z,18.56
2022-12-09T18:41:00.015Z,18.55
2022-12-09T18:44:04.413Z,18.53
2022-12-09T18:47:06.509Z,18.52
2022-12-09T18:50:09.263Z,18.51
2022-12-09T18:53:11.633Z,18.50
2022-12-09T18:56:14.646Z,18.50
2022-12-09T18:59:17.396Z,18.47
2022-12-09T19:02:19.467Z,18.49
2022-12-09T19:05:21.677Z,18.47
2022-12-09T19:08:23.799Z,18.47
2022-12-09T19:11:28.831Z,18.44
2022-12-09T19:14:31.026Z,18.43
2022-12-09T19:17:33.073Z,18.42
2022-12-09T19:20:35.351Z,18.42
2022-12-09T19:23:39.521Z,18.42
2022-12-09T19:26:42.859Z,18.41
2022-12-09T19:29:45.359Z,18.39
2022-12-09T19:32:54.673Z,18.37
2022-12-09T19:35:56.713Z,18.35
2022-12-09T19:38:58.902Z,18.37
2022-12-09T19:42:01.698Z,18.35
2022-12-09T19:45:07.650Z,18.34
2022-12-09T19:48:12.718Z,18.33
2022-12-09T19:51:16.685Z,18.32
2022-12-09T19:54:25.152Z,18.30
2022-12-09T19:57:30.436Z,18.30
2022-12-09T20:00:36.822Z,18.28
2022-12-09T20:03:43.998Z,18.27
2022-12-09T20:06:47.492Z,18.27
2022-12-09T20:09:49.691Z,18.27
2022-12-09T20:12:51.781Z,18.25
2022-12-09T20:15:54.331Z,18.26
2022-12-09T20:18:58.391Z,18.24
2022-12-09T20:22:00.556Z,18.23
2022-12-09T20:25:02.655Z,18.21
2022-12-09T20:28:05.538Z,18.21
2022-12-09T20:31:13.200Z,18.18
2022-12-09T20:34:16.564Z,18.19
2022-12-09T20:37:18.835Z,18.15
2022-12-09T20:40:21.691Z,18.17
2022-12-09T20:43:23.794Z,18.17
2022-12-09T20:46:31.237Z,18.14
2022-12-09T20:49:33.427Z,18.14
2022-12-09T20:52:35.485Z,18.12
2022-12-09T20:55:37.532Z,18.11
2022-12-09T20:58:41.897Z,18.10
2022-12-09T21:01:45.720Z,18.09
2022-12-09T21:04:47.769Z,18.07
2022-12-09T21:07:49.892Z,18.07
2022-12-09T21:10:52.265Z,18.07
2022-12-09T21:13:58.185Z,18.05
2022-12-09T21:17:00.256Z,18.05
2022-12-09T21:20:02.442Z,18.03
2022-12-09T21:23:32.935Z,18.04
2022-12-09T21:26:27.115Z,18.02
2022-12-09T21:29:32.188Z,17.99
2022-12-09T21:32:34.980Z,17.99
2022-12-09T21:35:37.621Z,17.96
2022-12-09T21:38:40.219Z,17.96
2022-12-09T21:41:43.471Z,18.02
2022-12-09T21:44:45.660Z,17.97
2022-12-09T21:47:47.849Z,17.96
2022-12-09T21:51:00.534Z,17.98
2022-12-09T21:54:03.433Z,17.96
2022-12-09T21:57:05.504Z,17.93
2022-12-09T22:00:09.051Z,17.89
2022-12-09T22:03:11.521Z,17.90
2022-12-09T22:06:14.388Z,17.89
2022-12-09T22:09:18.606Z,17.88
2022-12-09T22:12:20.636Z,17.89
2022-12-09T22:15:22.702Z,17.84
2022-12-09T22:18:24.794Z,17.84
2022-12-09T22:21:29.803Z,17.84
2022-12-09T22:24:32.272Z,17.84
2022-12-09T22:27:34.850Z,17.83
2022-12-09T22:30:37.090Z,17.81
2022-12-09T22:33:39.333Z,17.79
2022-12-09T22:36:41.834Z,17.77
2022-12-09T22:39:45.115Z,17.75
2022-12-09T22:42:47.226Z,17.78
2022-12-09T22:45:49.283Z,17.75
2022-12-09T22:48:51.626Z,17.74
2022-12-09T22:51:59.063Z,17.73
2022-12-09T22:55:02.558Z,17.70
2022-12-09T22:58:04.664Z,17.68
2022-12-09T23:01:20.838Z,17.68
2022-12-09T23:04:23.039Z,17.69
2022-12-09T23:07:25.161Z,17.66
2022-12-09T23:10:27.222Z,17.67
2022-12-09T23:13:30.512Z,17.65
2022-12-09T23:16:32.847Z,17.65
2022-12-09T23:19:35.025Z,17.63
2022-12-09T23:22:37.607Z,17.61
2022-12-09T23:25:39.718Z,17.60
2022-12-09T23:28:44.813Z,17.58
2022-12-09T23:31:46.865Z,17.59
2022-12-09T23:34:48.916Z,17.58
2022-12-09T23:37:50.970Z,17.55
2022-12-09T23:40:53.468Z,17.54
2022-12-09T23:43:55.727Z,17.50
2022-12-09T23:46:57.780Z,17.52
2022-12-09T23:49:59.792Z,17.50
2022-12-09T23:53:01.825Z,17.49
2022-12-09T23:56:03.938Z,17.45
2022-12-09T23:59:08.802Z,17.46
